Luke — WDC9569 — position and weather

sailwx.info

Track history (hours):
 
Tides and Currents Weather Stations Pressure Air Temp Water Temp Dewpoint Dewpoint Depression Visibility Wind Speed Wind Dir Waves Ship Positions

Luke

Owner: SO CAL SHIP SERVICES, INC, TERMINAL ISLAND, CA. More information available from US FCC via Universal Licensing System and Coast Guard Vessel Documentation Center.

Last reported at 2018-Feb-22 20:17 UTC. Time now 2018-Feb-24 18:09 UTC.
Position N 33°44' W 118°16'.

Length 31 m; draft 2.4 m.

Type: Ship (hazmat cat B). MMSI: 367104040.

Date/timePositionNaut miles runAvg speedWind from/ knotsBaromVisibWave heightAir tempDewpointWater temp
2018-Feb-22 20:17N 33°44' W 118°16'1 2.6
2018-Feb-22 19:59N 33°43' W 118°16'1 1.5
2018-Feb-22 19:30N 33°44' W 118°16'0 0.0
2018-Feb-22 19:00N 33°44' W 118°16'0 0.0
2018-Feb-22 18:30N 33°44' W 118°16'0 0.0
2018-Feb-22 17:58N 33°44' W 118°16'  
2018-Feb-15 21:35N 33°44' W 118°16'0 0.0
2018-Feb-14 23:58N 33°44' W 118°16'0 0.8
2018-Feb-14 23:30N 33°44' W 118°16'2 4.4
2018-Feb-14 23:00N 33°42' W 118°15'1715.9
2018-Feb-14 21:56N 33°33' W 118°32'715.6
2018-Feb-14 21:28N 33°29' W 118°40'715.7
2018-Feb-14 21:01N 33°24' W 118°46'815.9
2018-Feb-14 20:29N 33°17' W 118°52'38 2.2
2018-Feb-14 02:41N 33°41' W 118°16'2 8.8
2018-Feb-14 02:30N 33°43' W 118°16'1 2.1
2018-Feb-14 02:01N 33°44' W 118°16'0 0.0
2018-Feb-14 01:31N 33°44' W 118°16'0 0.0
2018-Feb-14 01:01N 33°44' W 118°16'0 0.1
2018-Feb-14 00:30N 33°44' W 118°16'0 0.0
2018-Feb-14 00:00N 33°44' W 118°16'0 0.0
2018-Feb-13 23:30N 33°44' W 118°16'  
Track history (hours):
 
Tides and Currents Weather Stations Pressure Air Temp Water Temp Dewpoint Dewpoint Depression Visibility Wind Speed Wind Dir Waves Ship Positions

Luke

Owner: SO CAL SHIP SERVICES, INC, TERMINAL ISLAND, CA. More information available from US FCC via Universal Licensing System and Coast Guard Vessel Documentation Center.

Last reported at 2018-Feb-22 20:17 UTC. Time now 2018-Feb-24 18:09 UTC.
Position N 33°44' W 118°16'.

Length 31 m; draft 2.4 m.

Type: Ship (hazmat cat B). MMSI: 367104040.

Date/timePositionNaut miles runAvg speedWind from/ knotsBaromVisibWave heightAir tempDewpointWater temp
2018-Feb-22 20:17N 33°44' W 118°16'1 2.6
2018-Feb-22 19:59N 33°43' W 118°16'1 1.5
2018-Feb-22 19:30N 33°44' W 118°16'0 0.0
2018-Feb-22 19:00N 33°44' W 118°16'0 0.0
2018-Feb-22 18:30N 33°44' W 118°16'0 0.0
2018-Feb-22 17:58N 33°44' W 118°16'  
2018-Feb-15 21:35N 33°44' W 118°16'0 0.0
2018-Feb-14 23:58N 33°44' W 118°16'0 0.8
2018-Feb-14 23:30N 33°44' W 118°16'2 4.4
2018-Feb-14 23:00N 33°42' W 118°15'1715.9
2018-Feb-14 21:56N 33°33' W 118°32'715.6
2018-Feb-14 21:28N 33°29' W 118°40'715.7
2018-Feb-14 21:01N 33°24' W 118°46'815.9
2018-Feb-14 20:29N 33°17' W 118°52'38 2.2
2018-Feb-14 02:41N 33°41' W 118°16'2 8.8
2018-Feb-14 02:30N 33°43' W 118°16'1 2.1
2018-Feb-14 02:01N 33°44' W 118°16'0 0.0
2018-Feb-14 01:31N 33°44' W 118°16'0 0.0
2018-Feb-14 01:01N 33°44' W 118°16'0 0.1
2018-Feb-14 00:30N 33°44' W 118°16'0 0.0
2018-Feb-14 00:00N 33°44' W 118°16'0 0.0
2018-Feb-13 23:30N 33°44' W 118°16'  

Dump ship's entire track history